Time;durP1;ratioP1;P1;durP2;ratioP2;P2;SDS_P1;SDS_P2;PMS_P1;PMS_P2;Temp;Humidity;BMP_temperature;BMP_pressure;BME280_temperature;BME280_humidity;BME280_pressure;Samples;Min_cycle;Max_cycle;Signal;HPM_P1;HPM_P2
2022/06/18 00:00:29;;;;;;;6.72;1.77;;;;;;;17.25;71.70;101120.81;5031590;28;20044;-68
2022/06/18 00:03:32;;;;;;;3.22;1.20;;;;;;;17.24;72.17;101119.13;5031774;28;20445;-68
2022/06/18 00:06:44;;;;;;;3.58;1.70;;;;;;;17.31;71.75;101115.09;5031407;28;20564;-68
2022/06/18 00:09:57;;;;;;;2.67;1.35;;;;;;;17.17;71.88;101113.44;5031829;28;20418;-68
2022/06/18 00:16:39;;;;;;;2.47;1.27;;;;;;;17.14;72.51;101104.91;5031692;28;20095;-68
2022/06/18 00:19:44;;;;;;;4.30;1.48;;;;;;;17.03;72.70;101104.78;5031735;28;20036;-68
2022/06/18 00:22:49;;;;;;;3.00;1.23;;;;;;;16.96;72.41;101110.50;5031400;28;20044;-68
2022/06/18 00:25:53;;;;;;;6.10;1.55;;;;;;;17.11;72.28;101113.03;5031444;28;20095;-68
2022/06/18 00:28:56;;;;;;;4.05;1.50;;;;;;;16.92;73.03;101119.59;5031177;28;20100;-68
2022/06/18 00:31:59;;;;;;;4.70;1.45;;;;;;;16.88;72.94;101123.41;5019088;28;20057;-68
2022/06/18 00:35:03;;;;;;;6.95;2.03;;;;;;;16.77;73.18;101117.16;5031275;28;20051;-68
2022/06/18 00:38:13;;;;;;;4.30;1.52;;;;;;;16.75;73.13;101122.53;5032790;28;20059;-68
2022/06/18 00:41:21;;;;;;;4.85;1.75;;;;;;;16.68;73.36;101121.25;5034802;28;20040;-68
2022/06/18 00:44:54;;;;;;;6.75;2.42;;;;;;;16.70;72.99;101124.63;5034611;28;20048;-68
2022/06/18 00:48:20;;;;;;;5.90;2.70;;;;;;;16.76;73.56;101128.69;5034829;28;20133;-68
2022/06/18 00:51:40;;;;;;;5.82;2.97;;;;;;;16.71;73.94;101121.88;5034589;28;20041;-68
2022/06/18 00:54:50;;;;;;;8.00;3.13;;;;;;;16.72;73.94;101112.19;5022236;28;20064;-68
2022/06/18 00:58:07;;;;;;;8.73;3.10;;;;;;;16.61;74.52;101114.69;5034503;28;20195;-68
2022/06/18 01:01:22;;;;;;;5.65;2.58;;;;;;;16.44;75.19;101103.50;5034699;28;20083;-68
2022/06/18 01:04:32;;;;;;;4.68;2.05;;;;;;;16.38;74.84;101110.97;5022470;28;20052;-68
2022/06/18 01:07:37;;;;;;;6.05;2.00;;;;;;;16.33;74.89;101116.56;5022339;28;20052;-68
2022/06/18 01:10:48;;;;;;;2.88;1.67;;;;;;;16.37;75.01;101123.34;5022175;28;20565;-68
2022/06/18 01:13:52;;;;;;;4.13;1.98;;;;;;;16.34;75.05;101107.72;5022174;28;20410;-68
2022/06/18 01:17:01;;;;;;;10.80;1.80;;;;;;;16.32;74.99;101114.88;5033891;28;20040;-68
2022/06/18 01:20:09;;;;;;;4.25;1.55;;;;;;;16.25;75.16;101110.97;5021725;28;20045;-68
2022/06/18 01:23:34;;;;;;;4.28;1.52;;;;;;;16.12;75.41;101112.72;5034224;28;20100;-68
2022/06/18 01:26:38;;;;;;;5.90;1.92;;;;;;;16.15;75.68;101109.88;5021074;28;20076;-68
2022/06/18 01:29:42;;;;;;;3.25;1.13;;;;;;;16.17;74.74;101110.59;5021497;28;20064;-68
2022/06/18 01:32:48;;;;;;;3.25;1.50;;;;;;;16.25;74.69;101110.97;5022044;28;20120;-68
2022/06/18 01:35:54;;;;;;;3.00;1.65;;;;;;;16.23;75.07;101102.28;5021443;28;20059;-68
2022/06/18 01:39:04;;;;;;;9.48;1.70;;;;;;;16.21;75.06;101098.94;5021612;28;20051;-68
2022/06/18 01:42:29;;;;;;;6.22;1.90;;;;;;;16.19;74.76;101104.28;5033681;28;20091;-68
2022/06/18 01:45:35;;;;;;;4.40;1.58;;;;;;;16.07;75.34;101101.63;5021249;28;20518;-68
2022/06/18 01:48:41;;;;;;;4.38;1.80;;;;;;;16.09;75.45;101099.75;5021300;28;20063;-68
2022/06/18 01:51:47;;;;;;;4.47;1.92;;;;;;;16.08;75.35;101101.53;5021079;28;20138;-68
2022/06/18 01:54:57;;;;;;;5.40;2.17;;;;;;;15.94;75.88;101094.50;5020901;28;20133;-68
2022/06/18 01:58:11;;;;;;;5.25;1.90;;;;;;;15.95;75.69;101101.50;5021224;28;20137;-68
2022/06/18 02:01:20;;;;;;;3.45;1.70;;;;;;;15.92;75.65;101098.19;5033597;28;20099;-68
2022/06/18 02:04:25;;;;;;;4.53;1.40;;;;;;;15.83;75.78;101086.47;5021059;28;20098;-68
2022/06/18 02:07:28;;;;;;;4.47;1.67;;;;;;;15.67;76.43;101097.16;5033368;28;20152;-68
2022/06/18 02:10:43;;;;;;;5.05;1.33;;;;;;;15.59;76.47;101091.50;5033131;28;20044;-68
2022/06/18 02:14:11;;;;;;;3.78;1.70;;;;;;;15.53;77.00;101095.38;5021229;28;20044;-68
2022/06/18 02:17:20;;;;;;;4.05;1.70;;;;;;;15.45;77.28;101092.38;5020313;28;20056;-68
2022/06/18 02:20:27;;;;;;;4.13;1.67;;;;;;;15.52;77.10;101093.69;5033041;28;20192;-68
2022/06/18 02:23:30;;;;;;;5.70;1.48;;;;;;;15.45;77.23;101086.28;5032916;28;20048;-68
2022/06/18 02:26:35;;;;;;;2.92;1.52;;;;;;;15.45;77.24;101076.59;5033047;28;20402;-68
2022/06/18 02:29:38;;;;;;;4.82;1.30;;;;;;;15.49;77.04;101075.44;5032459;28;20581;-68
2022/06/18 02:33:20;;;;;;;5.43;1.52;;;;;;;15.55;76.73;101077.66;5032735;28;20125;-68
2022/06/18 02:36:29;;;;;;;5.78;1.80;;;;;;;15.61;76.33;101072.97;5032859;28;20415;-68
2022/06/18 02:39:52;;;;;;;4.07;1.58;;;;;;;15.66;76.34;101071.69;5019829;28;20099;-68
2022/06/18 02:42:58;;;;;;;3.85;1.65;;;;;;;15.55;76.62;101071.56;5032873;28;20068;-68
2022/06/18 02:46:04;;;;;;;7.90;2.30;;;;;;;15.57;76.68;101072.28;5032180;28;20072;-68
2022/06/18 02:49:11;;;;;;;5.07;2.17;;;;;;;15.49;76.97;101072.78;5019768;28;20107;-68
2022/06/18 02:52:15;;;;;;;7.47;1.73;;;;;;;15.28;77.59;101069.75;5032157;28;20079;-67
2022/06/18 02:55:25;;;;;;;4.47;1.80;;;;;;;15.32;77.61;101070.41;5020192;28;20060;-68
2022/06/18 02:58:39;;;;;;;3.85;1.55;;;;;;;15.35;77.48;101073.69;5019918;28;20056;-68
2022/06/18 03:01:42;;;;;;;3.85;1.75;;;;;;;15.41;77.36;101069.81;5031650;28;20128;-68
2022/06/18 03:04:45;;;;;;;5.13;1.75;;;;;;;15.34;77.49;101066.69;5032024;28;20137;-68
2022/06/18 03:07:49;;;;;;;3.28;1.73;;;;;;;15.28;77.45;101060.97;5019403;28;20521;-68
2022/06/18 03:14:18;;;;;;;5.22;2.47;;;;;;;15.28;77.43;101063.63;5031087;28;20574;-68
2022/06/18 03:17:23;;;;;;;6.90;2.25;;;;;;;15.19;77.81;101066.81;5019748;28;20044;-68
2022/06/18 03:21:03;;;;;;;6.63;2.20;;;;;;;15.13;78.03;101069.88;5031632;28;20522;-68
2022/06/18 03:24:08;;;;;;;5.50;2.13;;;;;;;15.08;78.33;101070.97;5005500;28;20043;-68
2022/06/18 03:27:14;;;;;;;3.95;2.25;;;;;;;15.01;78.35;101072.31;5020033;28;20407;-68
2022/06/18 03:30:20;;;;;;;6.10;2.42;;;;;;;14.95;78.89;101063.94;5030902;28;20072;-68
2022/06/18 03:33:23;;;;;;;5.18;1.98;;;;;;;15.08;78.47;101068.34;5019678;28;20075;-68
2022/06/18 03:36:27;;;;;;;3.25;1.85;;;;;;;15.09;78.37;101070.06;5019423;28;20091;-67
2022/06/18 03:39:31;;;;;;;3.05;1.70;;;;;;;14.93;78.99;101060.56;5019364;28;20109;-67
2022/06/18 03:42:34;;;;;;;9.63;2.10;;;;;;;14.99;78.88;101068.91;5019621;28;20174;-67
2022/06/18 03:45:43;;;;;;;4.65;1.98;;;;;;;15.11;78.44;101067.31;5015613;28;20150;-67
2022/06/18 03:48:57;;;;;;;6.20;1.90;;;;;;;15.08;78.22;101068.34;5027666;28;20095;-67
2022/06/18 03:52:08;;;;;;;3.45;1.73;;;;;;;15.23;77.79;101069.19;5015063;28;20076;-68
2022/06/18 03:55:12;;;;;;;5.05;2.53;;;;;;;15.25;77.68;101063.81;5015583;28;20052;-68
2022/06/18 03:58:16;;;;;;;3.78;2.28;;;;;;;15.09;78.52;101069.19;5027295;28;20052;-68
2022/06/18 04:01:28;;;;;;;5.00;2.33;;;;;;;15.06;78.67;101066.75;5015531;28;20053;-68
2022/06/18 04:04:35;;;;;;;4.88;2.28;;;;;;;15.15;78.33;101063.53;5015501;28;20052;-68
2022/06/18 04:07:40;;;;;;;6.63;2.85;;;;;;;15.03;79.07;101069.59;5015909;28;20106;-68
2022/06/18 04:10:47;;;;;;;5.47;2.63;;;;;;;15.02;79.21;101066.09;5027701;28;20106;-68
2022/06/18 04:13:50;;;;;;;4.80;2.05;;;;;;;15.09;78.72;101071.81;5018112;28;20499;-67
2022/06/18 04:17:33;;;;;;;4.07;2.30;;;;;;;15.15;78.60;101073.25;5031719;28;20099;-68
2022/06/18 04:20:37;;;;;;;9.60;2.10;;;;;;;15.02;79.20;101071.38;5018414;28;20448;-67
2022/06/18 04:23:44;;;;;;;4.10;1.73;;;;;;;15.22;78.61;101075.41;5017924;28;20095;-68
2022/06/18 04:26:47;;;;;;;7.10;2.10;;;;;;;15.16;78.77;101081.06;5018206;28;20132;-68
2022/06/18 04:29:51;;;;;;;3.85;1.90;;;;;;;15.18;78.87;101078.31;5019002;28;20561;-67
2022/06/18 04:33:01;;;;;;;6.13;1.98;;;;;;;15.26;78.18;101078.69;5029768;28;20521;-67
2022/06/18 04:36:41;;;;;;;5.40;1.98;;;;;;;15.28;78.54;101074.16;5031020;28;20171;-67
2022/06/18 04:39:59;;;;;;;6.88;2.40;;;;;;;15.35;78.15;101075.47;5029078;28;20566;-68
2022/06/18 04:43:11;;;;;;;5.63;2.20;;;;;;;15.39;78.10;101076.97;5017564;28;20509;-68
2022/06/18 04:46:22;;;;;;;7.97;1.60;;;;;;;15.39;78.21;101070.84;5017422;28;20107;-68
2022/06/18 04:49:28;;;;;;;3.30;1.50;;;;;;;15.61;76.85;101072.97;5017708;28;20052;-68
2022/06/18 04:52:31;;;;;;;6.93;1.85;;;;;;;15.45;77.23;101071.31;5018759;28;20048;-68
2022/06/18 04:55:38;;;;;;;4.10;2.13;;;;;;;15.47;76.91;101077.31;5017408;28;20073;-68
2022/06/18 04:58:42;;;;;;;5.30;2.58;;;;;;;15.50;76.55;101071.84;5030758;28;20048;-68
2022/06/18 05:02:00;;;;;;;3.22;2.30;;;;;;;15.57;76.76;101075.78;5017645;28;20129;-68
2022/06/18 05:05:26;;;;;;;3.15;1.63;;;;;;;15.93;75.01;101076.16;5029658;28;20040;-69
2022/06/18 05:08:57;;;;;;;2.88;1.60;;;;;;;16.28;73.37;101068.53;5015969;28;20426;-69
2022/06/18 05:12:10;;;;;;;5.70;1.85;;;;;;;16.26;73.53;101065.16;5016183;28;20422;-68
2022/06/18 05:15:22;;;;;;;5.55;1.70;;;;;;;16.41;73.19;101061.47;4678670;28;10001490;-68
2022/06/18 05:18:30;;;;;;;3.47;1.88;;;;;;;16.35;73.40;101053.97;5016556;28;20111;-68
2022/06/18 05:21:35;;;;;;;4.88;2.05;;;;;;;16.29;73.99;101057.03;5016454;28;20044;-68
2022/06/18 05:24:38;;;;;;;4.82;1.58;;;;;;;16.26;74.01;101054.59;5016275;28;20044;-68
2022/06/18 05:27:48;;;;;;;4.55;1.45;;;;;;;16.32;73.81;101054.19;5017767;28;20044;-68
2022/06/18 05:31:00;;;;;;;2.20;1.13;;;;;;;16.51;72.96;101051.97;5027923;28;20052;-68
2022/06/18 05:34:08;;;;;;;4.70;1.88;;;;;;;16.72;72.14;101041.72;5016877;28;20295;-69
2022/06/18 05:37:14;;;;;;;4.60;1.50;;;;;;;16.92;71.95;101045.63;5028425;28;20056;-69
2022/06/18 05:40:18;;;;;;;2.67;1.27;;;;;;;16.90;71.71;101039.59;5017469;28;20124;-67
2022/06/18 05:43:22;;;;;;;4.07;1.48;;;;;;;16.96;71.81;101036.53;5017656;28;20136;-68
2022/06/18 05:46:26;;;;;;;4.22;1.48;;;;;;;16.86;72.02;101034.66;5017103;28;20075;-69
2022/06/18 08:33:47;;;;;;;4.90;0.90;;;;;;;23.48;59.30;100849.59;3290165;26;20535;-77
2022/06/18 08:36:55;;;;;;;6.53;1.23;;;;;;;23.58;58.18;100848.50;5030610;28;20107;-75
2022/06/18 08:40:00;;;;;;;2.30;0.90;;;;;;;23.70;58.18;100854.44;5030171;28;20048;-75
2022/06/18 08:52:24;;;;;;;4.57;1.10;;;;;;;24.60;52.03;100844.16;5014378;28;20041;-77
2022/06/18 08:55:37;;;;;;;5.55;1.38;;;;;;;24.46;51.59;100840.28;5028382;28;20083;-77
2022/06/18 08:58:47;;;;;;;4.85;1.20;;;;;;;25.03;49.40;100843.03;5015926;28;20448;-77
2022/06/18 09:02:03;;;;;;;8.05;1.30;;;;;;;24.99;48.73;100840.88;5027831;28;20079;-77
2022/06/18 09:05:22;;;;;;;4.47;1.10;;;;;;;24.95;47.60;100827.00;5030011;28;20091;-76
2022/06/18 09:08:51;;;;;;;6.38;1.83;;;;;;;24.93;49.02;100828.19;5031353;28;20049;-76
2022/06/18 09:12:19;;;;;;;5.43;1.20;;;;;;;24.86;49.10;100824.50;5021132;28;20109;-76
2022/06/18 09:15:34;;;;;;;3.55;1.60;;;;;;;25.19;47.52;100815.47;5011149;28;20052;-76
2022/06/18 09:18:48;;;;;;;3.45;1.00;;;;;;;25.60;46.60;100807.41;4999216;28;20092;-77
2022/06/18 09:21:55;;;;;;;4.18;0.77;;;;;;;25.47;46.94;100807.94;5014575;28;20045;-78
2022/06/18 09:25:10;;;;;;;2.50;1.02;;;;;;;25.49;46.20;100811.28;5030713;28;20095;-78
2022/06/18 09:28:24;;;;;;;3.58;1.40;;;;;;;26.26;45.16;100809.84;5004721;28;20049;-78
